Time;durP1;ratioP1;P1;durP2;ratioP2;P2;SDS_P1;SDS_P2;PMS_P1;PMS_P2;Temp;Humidity;BMP_temperature;BMP_pressure;BME280_temperature;BME280_humidity;BME280_pressure;Samples;Min_cycle;Max_cycle;Signal;HPM_P1;HPM_P2
2024/01/10 00:00:40;;;;;;;16.87;12.07;;;;;;;;;;6181585;23;20005;-90
2024/01/10 00:03:06;;;;;;;18.93;13.70;;;;;;;;;;6182917;23;20019;-88
2024/01/10 00:05:31;;;;;;;16.47;12.27;;;;;;;;;;6182852;23;19997;-89
2024/01/10 00:07:57;;;;;;;18.37;13.17;;;;;;;;;;6180765;23;20002;-90
2024/01/10 00:10:22;;;;;;;17.53;13.20;;;;;;;;;;6183008;23;20476;-89
2024/01/10 00:12:47;;;;;;;18.50;13.57;;;;;;;;;;6183554;23;20083;-90
2024/01/10 00:15:13;;;;;;;22.17;14.03;;;;;;;;;;6181377;23;20419;-89
2024/01/10 00:17:41;;;;;;;18.70;13.93;;;;;;;;;;6180906;23;20047;-89
2024/01/10 00:20:07;;;;;;;18.13;13.80;;;;;;;;;;6181989;23;20009;-88
2024/01/10 00:22:32;;;;;;;19.17;14.10;;;;;;;;;;6181296;23;20019;-90
2024/01/10 00:24:58;;;;;;;19.30;13.40;;;;;;;;;;6182646;23;20366;-90
2024/01/10 00:27:23;;;;;;;20.53;13.93;;;;;;;;;;6183484;23;20458;-90
2024/01/10 00:29:51;;;;;;;19.47;14.03;;;;;;;;;;6181462;23;20019;-91
2024/01/10 00:32:16;;;;;;;20.27;13.93;;;;;;;;;;6181162;23;20051;-91
2024/01/10 00:34:41;;;;;;;20.43;14.03;;;;;;;;;;6179631;23;19993;-91
2024/01/10 00:37:07;;;;;;;17.67;13.83;;;;;;;;;;6179027;23;20000;-90
2024/01/10 00:39:32;;;;;;;20.03;14.53;;;;;;;;;;6184914;22;20327;-92
2024/01/10 00:41:57;;;;;;;19.20;14.00;;;;;;;;;;6310847;22;20075;-91
2024/01/10 00:44:23;;;;;;;22.90;14.63;;;;;;;;;;6311310;22;20007;-90
2024/01/10 00:46:48;;;;;;;19.07;14.03;;;;;;;;;;6339829;22;20028;-89
2024/01/10 00:49:14;;;;;;;17.90;13.57;;;;;;;;;;6312996;22;20026;-91
2024/01/10 00:51:39;;;;;;;19.67;14.27;;;;;;;;;;6313109;22;20070;-91
2024/01/10 00:54:05;;;;;;;19.73;13.73;;;;;;;;;;6312982;22;20006;-91
2024/01/10 00:56:30;;;;;;;19.00;14.07;;;;;;;;;;6313316;22;19997;-91
2024/01/10 00:58:57;;;;;;;21.33;14.10;;;;;;;;;;6313774;22;20003;-91
2024/01/10 01:01:23;;;;;;;19.90;14.33;;;;;;;;;;6341523;22;20066;-91
2024/01/10 01:03:51;;;;;;;19.83;13.70;;;;;;;;;;6316060;22;20447;-91
2024/01/10 01:06:16;;;;;;;19.33;14.50;;;;;;;;;;6316864;22;19999;-91
2024/01/10 01:08:43;;;;;;;20.83;14.57;;;;;;;;;;6323421;22;20010;-90
2024/01/10 01:11:08;;;;;;;19.80;14.00;;;;;;;;;;6330569;22;19991;-90
2024/01/10 01:13:34;;;;;;;19.83;14.13;;;;;;;;;;6322644;22;20294;-90
2024/01/10 01:16:02;;;;;;;21.17;14.23;;;;;;;;;;6316490;22;19991;-88
2024/01/10 01:18:27;;;;;;;21.30;14.40;;;;;;;;;;6316794;22;20366;-87
2024/01/10 01:20:53;;;;;;;21.87;14.80;;;;;;;;;;6318138;22;20009;-89
2024/01/10 01:23:19;;;;;;;21.23;14.83;;;;;;;;;;6345651;22;20018;-88
2024/01/10 01:25:44;;;;;;;21.63;14.60;;;;;;;;;;6312803;22;20003;-88
2024/01/10 01:28:09;;;;;;;18.80;13.60;;;;;;;;;;6312359;22;20295;-89
2024/01/10 01:30:35;;;;;;;22.50;14.47;;;;;;;;;;6313399;22;20001;-89
2024/01/10 01:33:00;;;;;;;21.90;15.17;;;;;;;;;;6340461;22;20410;-89
2024/01/10 01:35:25;;;;;;;20.50;14.47;;;;;;;;;;6340432;22;19995;-88
2024/01/10 01:37:51;;;;;;;22.03;15.50;;;;;;;;;;6339944;22;20081;-89
2024/01/10 01:40:18;;;;;;;21.80;15.13;;;;;;;;;;6263893;22;20032;-88
2024/01/10 01:42:44;;;;;;;20.17;15.37;;;;;;;;;;6179979;23;20483;-91
2024/01/10 01:45:10;;;;;;;20.63;14.73;;;;;;;;;;6180511;23;20020;-89
2024/01/10 01:47:35;;;;;;;22.53;14.50;;;;;;;;;;6155531;23;20001;-89
2024/01/10 01:50:01;;;;;;;21.57;14.93;;;;;;;;;;6180473;23;20399;-88
2024/01/10 01:52:29;;;;;;;21.57;15.00;;;;;;;;;;6156689;23;19993;-89
2024/01/10 01:54:55;;;;;;;21.03;14.47;;;;;;;;;;6187740;23;20285;-88
2024/01/10 01:57:20;;;;;;;22.17;14.33;;;;;;;;;;6192601;23;20004;-91
2024/01/10 01:59:45;;;;;;;20.43;14.53;;;;;;;;;;6184039;23;20001;-90
2024/01/10 02:02:11;;;;;;;20.80;14.03;;;;;;;;;;6188060;23;20007;-89
2024/01/10 02:04:37;;;;;;;21.63;14.90;;;;;;;;;;6187818;23;20474;-89
2024/01/10 02:07:02;;;;;;;20.93;14.63;;;;;;;;;;6183613;23;20012;-87
2024/01/10 02:09:28;;;;;;;20.33;13.73;;;;;;;;;;6182936;23;20025;-89
2024/01/10 02:11:53;;;;;;;22.20;14.43;;;;;;;;;;6183017;23;20001;-89
2024/01/10 02:14:19;;;;;;;19.87;13.73;;;;;;;;;;6183088;23;20004;-88
2024/01/10 02:16:44;;;;;;;19.80;13.80;;;;;;;;;;6181733;23;20079;-87
2024/01/10 02:19:19;;;;;;;21.93;15.30;;;;;;;;;;6180825;23;20001;-88
2024/01/10 02:21:45;;;;;;;17.83;13.20;;;;;;;;;;6182296;23;19997;-88
2024/01/10 02:24:10;;;;;;;20.10;14.20;;;;;;;;;;6181831;23;20081;-87
2024/01/10 02:26:36;;;;;;;21.77;14.63;;;;;;;;;;6181087;23;20001;-88
2024/01/10 02:29:01;;;;;;;19.97;13.60;;;;;;;;;;6181629;23;20054;-91
2024/01/10 02:31:27;;;;;;;19.93;14.03;;;;;;;;;;6182008;23;19989;-91
2024/01/10 02:33:52;;;;;;;19.77;13.97;;;;;;;;;;6181376;23;20435;-89
2024/01/10 02:36:18;;;;;;;20.63;13.90;;;;;;;;;;6182221;23;20038;-90
2024/01/10 02:38:43;;;;;;;20.03;14.23;;;;;;;;;;6182207;23;20001;-91
2024/01/10 02:41:08;;;;;;;19.03;13.47;;;;;;;;;;6180104;23;20005;-88
2024/01/10 02:43:34;;;;;;;20.10;13.57;;;;;;;;;;6182334;23;20001;-88
2024/01/10 02:45:59;;;;;;;19.80;13.10;;;;;;;;;;6181948;23;20033;-90
2024/01/10 02:48:26;;;;;;;18.50;13.13;;;;;;;;;;6180939;22;20077;-88
2024/01/10 02:50:51;;;;;;;18.93;13.27;;;;;;;;;;6181957;23;19993;-89
2024/01/10 02:53:16;;;;;;;19.97;13.27;;;;;;;;;;6183057;23;20000;-87
2024/01/10 02:55:43;;;;;;;20.03;13.30;;;;;;;;;;6189663;23;20001;-89
2024/01/10 02:58:08;;;;;;;18.37;13.10;;;;;;;;;;6180927;23;20484;-90
2024/01/10 03:00:34;;;;;;;18.83;13.33;;;;;;;;;;6182852;23;19993;-87
2024/01/10 03:02:59;;;;;;;22.27;14.43;;;;;;;;;;6184911;23;20001;-88
2024/01/10 03:05:25;;;;;;;19.90;13.30;;;;;;;;;;6186593;23;20016;-88
2024/01/10 03:07:50;;;;;;;19.27;13.43;;;;;;;;;;6185864;23;19997;-88
2024/01/10 03:10:16;;;;;;;18.30;12.57;;;;;;;;;;6180980;23;20009;-88
2024/01/10 03:12:41;;;;;;;19.57;13.50;;;;;;;;;;6179583;23;20426;-87
2024/01/10 03:15:06;;;;;;;20.80;13.47;;;;;;;;;;6180698;23;20362;-88
2024/01/10 03:17:33;;;;;;;20.03;13.03;;;;;;;;;;6181437;23;20062;-90
2024/01/10 03:19:59;;;;;;;18.80;12.40;;;;;;;;;;6180356;23;19997;-89
2024/01/10 03:22:24;;;;;;;20.77;13.93;;;;;;;;;;6181791;23;20056;-89
2024/01/10 03:24:50;;;;;;;21.57;13.50;;;;;;;;;;6182060;23;20420;-89
2024/01/10 03:27:15;;;;;;;19.13;12.77;;;;;;;;;;6184989;23;20006;-90
2024/01/10 03:29:41;;;;;;;18.50;13.53;;;;;;;;;;6188798;23;20431;-89
2024/01/10 03:32:06;;;;;;;19.43;13.33;;;;;;;;;;6180552;23;19997;-89
2024/01/10 03:34:32;;;;;;;20.70;13.50;;;;;;;;;;6181808;23;20025;-89
2024/01/10 03:36:57;;;;;;;20.13;13.10;;;;;;;;;;6186892;23;20024;-89
2024/01/10 03:39:22;;;;;;;20.87;13.87;;;;;;;;;;6181497;23;20008;-89
2024/01/10 03:41:48;;;;;;;18.80;13.13;;;;;;;;;;6334718;22;20006;-90
2024/01/10 03:44:14;;;;;;;21.53;13.97;;;;;;;;;;6316891;22;20002;-90
2024/01/10 03:46:39;;;;;;;19.37;13.20;;;;;;;;;;6351894;22;20050;-89
2024/01/10 03:49:04;;;;;;;17.90;13.10;;;;;;;;;;6338437;22;20429;-89
2024/01/10 03:51:30;;;;;;;19.47;12.40;;;;;;;;;;6338397;22;20018;-89
2024/01/10 03:53:55;;;;;;;20.43;12.60;;;;;;;;;;6338816;22;20010;-90
2024/01/10 03:56:21;;;;;;;19.37;13.00;;;;;;;;;;6310779;22;20086;-90
2024/01/10 03:58:48;;;;;;;17.93;12.20;;;;;;;;;;6340780;22;19997;-91
2024/01/10 04:01:14;;;;;;;18.53;12.40;;;;;;;;;;6338541;22;19998;-90
2024/01/10 04:03:42;;;;;;;18.43;12.20;;;;;;;;;;6311342;22;20397;-89
2024/01/10 04:06:07;;;;;;;17.13;12.43;;;;;;;;;;6316422;22;19994;-89
2024/01/10 04:08:33;;;;;;;17.67;12.03;;;;;;;;;;6314500;22;19998;-90
2024/01/10 04:10:58;;;;;;;18.87;12.40;;;;;;;;;;6344744;22;20433;-91
2024/01/10 04:13:24;;;;;;;16.50;11.43;;;;;;;;;;6314698;22;19990;-90
2024/01/10 04:15:49;;;;;;;16.73;11.77;;;;;;;;;;6339037;22;20437;-90
2024/01/10 04:18:14;;;;;;;15.77;11.23;;;;;;;;;;6339014;22;19995;-88
2024/01/10 04:20:40;;;;;;;14.53;11.00;;;;;;;;;;6340239;22;19987;-89
2024/01/10 04:23:05;;;;;;;16.07;11.00;;;;;;;;;;6350451;22;20002;-88
2024/01/10 04:25:31;;;;;;;16.10;10.93;;;;;;;;;;6356065;22;20010;-88
2024/01/10 04:27:59;;;;;;;15.03;11.07;;;;;;;;;;6349762;22;20074;-89
2024/01/10 04:30:24;;;;;;;16.83;10.60;;;;;;;;;;6357724;22;20003;-89
2024/01/10 04:32:49;;;;;;;14.63;10.80;;;;;;;;;;6356840;22;19991;-89
2024/01/10 04:35:15;;;;;;;15.27;10.17;;;;;;;;;;6325137;22;20429;-89
2024/01/10 04:37:41;;;;;;;16.30;10.60;;;;;;;;;;6323259;22;20050;-90
2024/01/10 04:40:09;;;;;;;16.37;11.47;;;;;;;;;;6282302;22;20012;-90
2024/01/10 04:42:35;;;;;;;16.40;10.33;;;;;;;;;;6188790;23;20073;-87
2024/01/10 04:45:00;;;;;;;13.97;10.40;;;;;;;;;;6192800;23;20332;-88
2024/01/10 04:47:25;;;;;;;14.57;10.03;;;;;;;;;;6193604;23;20008;-89
2024/01/10 04:49:51;;;;;;;14.50;9.90;;;;;;;;;;6193970;23;19997;-87
2024/01/10 04:52:16;;;;;;;17.30;10.00;;;;;;;;;;6186731;23;20304;-87
2024/01/10 04:54:41;;;;;;;13.63;9.57;;;;;;;;;;6182061;23;20028;-90
2024/01/10 04:57:10;;;;;;;15.60;10.33;;;;;;;;;;6182349;23;20357;-90
2024/01/10 04:59:35;;;;;;;13.37;9.63;;;;;;;;;;6181840;23;20214;-90
2024/01/10 05:02:01;;;;;;;14.00;9.47;;;;;;;;;;6181555;23;20054;-88
2024/01/10 05:04:27;;;;;;;14.03;9.63;;;;;;;;;;6182347;23;20004;-91
2024/01/10 05:06:52;;;;;;;14.50;9.43;;;;;;;;;;6181994;23;20322;-89
2024/01/10 05:09:17;;;;;;;13.03;9.47;;;;;;;;;;6181181;23;19993;-91
2024/01/10 05:11:43;;;;;;;19.00;9.20;;;;;;;;;;6182295;22;20008;-91
2024/01/10 05:14:09;;;;;;;13.77;9.40;;;;;;;;;;6182216;23;20017;-90
2024/01/10 05:16:34;;;;;;;13.90;9.53;;;;;;;;;;6182674;22;19995;-89
2024/01/10 05:19:06;;;;;;;15.83;10.10;;;;;;;;;;6182755;22;20355;-90
2024/01/10 05:21:33;;;;;;;14.55;10.45;;;;;;;;;;6181534;23;20024;-90
2024/01/10 05:23:59;;;;;;;14.80;9.70;;;;;;;;;;6181996;23;20001;-89
2024/01/10 05:26:25;;;;;;;14.03;10.00;;;;;;;;;;6182611;23;20008;-90
2024/01/10 05:28:50;;;;;;;13.13;9.60;;;;;;;;;;6182893;23;20304;-90
2024/01/10 05:31:15;;;;;;;15.90;10.27;;;;;;;;;;6181376;22;20001;-87
2024/01/10 05:33:42;;;;;;;14.67;10.17;;;;;;;;;;6184191;23;20442;-87
2024/01/10 05:36:11;;;;;;;15.17;10.20;;;;;;;;;;6185071;23;19997;-88
2024/01/10 05:38:37;;;;;;;14.57;10.10;;;;;;;;;;6184735;23;20179;-89
2024/01/10 05:41:02;;;;;;;15.60;10.27;;;;;;;;;;6183172;23;20001;-89
2024/01/10 05:43:27;;;;;;;16.70;10.77;;;;;;;;;;6183004;23;20399;-89
2024/01/10 05:46:02;;;;;;;16.03;11.03;;;;;;;;;;6183043;23;20035;-88
2024/01/10 05:48:28;;;;;;;17.30;11.57;;;;;;;;;;6183374;23;20001;-91
2024/01/10 05:51:01;;;;;;;19.20;12.60;;;;;;;;;;6181911;23;20009;-88
2024/01/10 05:53:27;;;;;;;16.43;11.57;;;;;;;;;;6183884;23;19997;-88
2024/01/10 05:55:52;;;;;;;17.63;11.87;;;;;;;;;;6183044;23;20076;-88
2024/01/10 05:58:18;;;;;;;17.33;12.07;;;;;;;;;;6183912;23;20016;-88
2024/01/10 06:00:43;;;;;;;16.70;11.80;;;;;;;;;;6183050;23;19993;-88
2024/01/10 06:03:09;;;;;;;19.33;13.30;;;;;;;;;;6181044;23;20025;-90
2024/01/10 06:05:34;;;;;;;18.93;12.37;;;;;;;;;;6179934;23;20001;-87
2024/01/10 06:07:59;;;;;;;16.87;12.40;;;;;;;;;;6180642;23;20362;-90
2024/01/10 06:10:25;;;;;;;17.87;12.50;;;;;;;;;;6183071;23;20439;-90
2024/01/10 06:12:50;;;;;;;19.33;12.63;;;;;;;;;;6184809;23;20054;-89
2024/01/10 06:15:18;;;;;;;18.97;13.10;;;;;;;;;;6189808;23;19997;-89
2024/01/10 06:17:43;;;;;;;18.67;13.53;;;;;;;;;;6183172;23;20420;-90
2024/01/10 06:20:09;;;;;;;20.43;13.10;;;;;;;;;;6190806;23;20000;-90
2024/01/10 06:22:34;;;;;;;19.30;13.77;;;;;;;;;;6185870;23;20001;-90
2024/01/10 06:25:00;;;;;;;19.57;13.77;;;;;;;;;;6184363;23;20361;-89
2024/01/10 06:27:25;;;;;;;18.80;13.77;;;;;;;;;;6182041;23;20033;-88
2024/01/10 06:29:50;;;;;;;20.03;13.83;;;;;;;;;;6182559;23;20106;-88
2024/01/10 06:32:16;;;;;;;20.20;14.50;;;;;;;;;;6181140;23;19989;-89
2024/01/10 06:34:44;;;;;;;20.40;14.30;;;;;;;;;;6183388;23;20418;-89
2024/01/10 06:37:10;;;;;;;20.23;13.63;;;;;;;;;;6182345;23;20081;-89
2024/01/10 06:39:35;;;;;;;20.23;13.60;;;;;;;;;;6192610;22;20335;-89
2024/01/10 06:42:03;;;;;;;20.30;14.90;;;;;;;;;;6341538;22;20059;-90
2024/01/10 06:44:29;;;;;;;20.57;13.97;;;;;;;;;;6314025;22;19999;-89
2024/01/10 06:46:55;;;;;;;20.67;14.10;;;;;;;;;;6312167;22;20022;-90
2024/01/10 06:49:20;;;;;;;21.07;13.63;;;;;;;;;;6313912;22;19990;-89
2024/01/10 06:51:46;;;;;;;21.17;14.23;;;;;;;;;;6341528;22;19998;-88
2024/01/10 06:54:11;;;;;;;19.77;14.33;;;;;;;;;;6341773;22;20445;-91
2024/01/10 06:56:37;;;;;;;20.33;13.63;;;;;;;;;;6340866;22;20029;-90
2024/01/10 06:59:03;;;;;;;18.97;13.17;;;;;;;;;;6314196;22;20077;-89
2024/01/10 07:01:29;;;;;;;20.60;13.00;;;;;;;;;;6340349;22;20002;-89
2024/01/10 07:04:02;;;;;;;22.00;13.70;;;;;;;;;;6341354;22;20052;-90
2024/01/10 07:06:27;;;;;;;20.23;13.03;;;;;;;;;;6312945;22;20029;-90
2024/01/10 07:08:53;;;;;;;18.53;13.37;;;;;;;;;;6313877;22;20433;-89
2024/01/10 07:11:19;;;;;;;18.10;12.57;;;;;;;;;;6339938;22;20318;-88
2024/01/10 07:13:45;;;;;;;19.03;13.03;;;;;;;;;;6312427;22;20010;-90
2024/01/10 07:16:10;;;;;;;17.53;12.87;;;;;;;;;;6340209;22;19991;-89
2024/01/10 07:18:40;;;;;;;20.40;13.83;;;;;;;;;;6340346;22;20002;-89
2024/01/10 07:21:05;;;;;;;18.43;13.50;;;;;;;;;;6313649;22;20005;-89
2024/01/10 07:23:32;;;;;;;18.63;12.83;;;;;;;;;;6343753;22;20022;-89
2024/01/10 07:25:57;;;;;;;17.97;12.60;;;;;;;;;;6316608;22;20081;-89
2024/01/10 07:28:23;;;;;;;17.37;12.50;;;;;;;;;;6313936;22;20362;-89
2024/01/10 07:30:48;;;;;;;18.60;13.50;;;;;;;;;;6314350;22;19994;-88
2024/01/10 07:33:13;;;;;;;18.67;12.87;;;;;;;;;;6354175;22;20383;-89
2024/01/10 07:35:39;;;;;;;19.03;12.50;;;;;;;;;;6360500;22;19994;-88
2024/01/10 07:38:20;;;;;;;17.37;12.43;;;;;;;;;;6334812;22;20070;-89
2024/01/10 07:40:46;;;;;;;17.95;12.60;;;;;;;;;;6261999;22;20001;-87
2024/01/10 07:43:14;;;;;;;17.10;11.87;;;;;;;;;;6195170;23;19993;-88
2024/01/10 07:45:39;;;;;;;16.87;11.70;;;;;;;;;;6191553;23;20052;-89
2024/01/10 07:48:05;;;;;;;18.77;12.23;;;;;;;;;;6198052;23;20025;-90
2024/01/10 07:50:31;;;;;;;19.03;11.50;;;;;;;;;;6197894;23;20001;-87
2024/01/10 07:52:57;;;;;;;18.83;12.23;;;;;;;;;;6202980;23;20319;-90
2024/01/10 07:55:22;;;;;;;17.33;11.80;;;;;;;;;;6195488;23;19997;-90
2024/01/10 07:57:47;;;;;;;19.37;12.53;;;;;;;;;;6200053;23;20011;-89
2024/01/10 08:00:13;;;;;;;21.77;11.93;;;;;;;;;;6206890;23;19993;-90
2024/01/10 08:02:39;;;;;;;16.00;11.30;;;;;;;;;;6208021;23;20001;-89
2024/01/10 08:05:05;;;;;;;17.97;12.27;;;;;;;;;;6208231;23;20001;-90
2024/01/10 08:07:32;;;;;;;16.53;10.47;;;;;;;;;;6207903;23;20011;-88
2024/01/10 08:09:59;;;;;;;16.60;11.53;;;;;;;;;;6207458;22;20013;-89
2024/01/10 08:12:27;;;;;;;16.03;11.13;;;;;;;;;;6210127;23;20122;-87
2024/01/10 08:14:53;;;;;;;16.30;11.10;;;;;;;;;;6200878;23;20077;-88
2024/01/10 08:17:19;;;;;;;16.83;11.03;;;;;;;;;;6187339;23;19993;-87
2024/01/10 08:19:45;;;;;;;16.07;11.00;;;;;;;;;;6188170;23;20072;-91
2024/01/10 08:22:10;;;;;;;15.33;10.93;;;;;;;;;;6187732;23;20001;-88
2024/01/10 08:24:36;;;;;;;15.83;10.77;;;;;;;;;;6193435;23;20011;-88
2024/01/10 08:27:01;;;;;;;15.63;10.93;;;;;;;;;;6195761;23;19989;-88
2024/01/10 08:29:31;;;;;;;15.97;11.47;;;;;;;;;;6203679;23;20082;-89
2024/01/10 08:31:56;;;;;;;15.60;10.40;;;;;;;;;;6197401;23;20005;-89
2024/01/10 08:34:22;;;;;;;17.70;11.37;;;;;;;;;;6202885;23;20040;-89
2024/01/10 08:36:50;;;;;;;17.27;11.20;;;;;;;;;;6185912;23;20001;-88
2024/01/10 08:39:18;;;;;;;14.53;9.90;;;;;;;;;;6197896;23;20000;-89
2024/01/10 08:41:44;;;;;;;16.57;11.17;;;;;;;;;;6207664;23;19997;-89
2024/01/10 08:44:14;;;;;;;15.70;10.30;;;;;;;;;;6208481;23;20039;-89
2024/01/10 08:46:40;;;;;;;15.90;10.77;;;;;;;;;;6209108;23;19996;-88
2024/01/10 08:49:05;;;;;;;15.17;10.63;;;;;;;;;;6208908;23;20016;-89
2024/01/10 08:51:31;;;;;;;16.97;11.07;;;;;;;;;;6209003;23;20001;-87
2024/01/10 08:53:56;;;;;;;16.77;10.70;;;;;;;;;;6210201;23;20004;-91
2024/01/10 08:56:22;;;;;;;15.67;11.17;;;;;;;;;;6209379;23;20053;-89
2024/01/10 08:58:47;;;;;;;15.47;10.50;;;;;;;;;;6209034;23;20005;-89
2024/01/10 09:01:13;;;;;;;15.37;10.30;;;;;;;;;;6209044;23;20014;-90
2024/01/10 09:03:38;;;;;;;14.73;10.13;;;;;;;;;;6210261;23;19989;-89
2024/01/10 09:06:04;;;;;;;16.40;10.33;;;;;;;;;;6209134;23;20001;-89
2024/01/10 09:08:32;;;;;;;14.53;10.27;;;;;;;;;;6191637;23;20021;-89
2024/01/10 09:10:57;;;;;;;15.60;9.60;;;;;;;;;;6184806;23;20069;-89
2024/01/10 09:13:23;;;;;;;13.53;9.50;;;;;;;;;;6186286;23;20451;-88
2024/01/10 09:15:48;;;;;;;14.97;10.13;;;;;;;;;;6186323;22;19993;-89
2024/01/10 09:18:14;;;;;;;12.47;9.87;;;;;;;;;;6182556;23;20004;-88
2024/01/10 09:20:40;;;;;;;14.40;10.00;;;;;;;;;;6185562;23;20040;-89
2024/01/10 09:23:05;;;;;;;15.87;9.67;;;;;;;;;;6183945;23;20332;-89
2024/01/10 09:25:31;;;;;;;15.50;9.30;;;;;;;;;;6183837;23;20000;-89
2024/01/10 09:27:57;;;;;;;16.23;9.90;;;;;;;;;;6184632;23;19993;-89
2024/01/10 09:30:23;;;;;;;14.97;9.40;;;;;;;;;;6184016;23;20012;-89
2024/01/10 09:32:49;;;;;;;13.50;9.93;;;;;;;;;;6182000;23;20013;-89
2024/01/10 09:35:15;;;;;;;15.07;9.90;;;;;;;;;;6187084;23;20439;-88
2024/01/10 09:37:41;;;;;;;14.73;9.43;;;;;;;;;;6192546;23;20004;-88
2024/01/10 09:40:07;;;;;;;16.03;9.37;;;;;;;;;;6193973;23;20087;-89
2024/01/10 09:42:35;;;;;;;14.07;9.13;;;;;;;;;;6195398;23;20061;-90
2024/01/10 09:45:01;;;;;;;13.13;8.90;;;;;;;;;;6190514;23;20001;-88
2024/01/10 09:47:26;;;;;;;14.20;9.30;;;;;;;;;;6181777;23;20059;-90
2024/01/10 09:49:52;;;;;;;19.17;11.47;;;;;;;;;;6182676;23;20004;-89
2024/01/10 09:52:27;;;;;;;16.07;8.87;;;;;;;;;;6180012;23;19993;-89
2024/01/10 09:54:56;;;;;;;16.97;9.57;;;;;;;;;;6188330;23;19997;-89
2024/01/10 09:57:25;;;;;;;13.50;9.07;;;;;;;;;;6188820;23;19993;-89
2024/01/10 09:59:54;;;;;;;11.97;8.87;;;;;;;;;;6185625;23;20086;-89
2024/01/10 10:02:22;;;;;;;15.53;8.73;;;;;;;;;;6180657;23;20424;-89
2024/01/10 10:04:50;;;;;;;12.80;8.40;;;;;;;;;;6181126;23;20024;-89
2024/01/10 10:07:16;;;;;;;13.30;8.40;;;;;;;;;;6182309;23;20061;-89
2024/01/10 10:09:41;;;;;;;14.47;8.83;;;;;;;;;;6182209;23;20350;-89
2024/01/10 10:12:07;;;;;;;17.27;8.47;;;;;;;;;;6180821;23;19994;-89
2024/01/10 10:14:32;;;;;;;16.07;9.00;;;;;;;;;;6181527;23;20092;-89
2024/01/10 10:17:13;;;;;;;15.17;9.93;;;;;;;;;;6181134;23;20412;-90
2024/01/10 10:19:38;;;;;;;13.80;9.90;;;;;;;;;;6181612;23;20024;-89
2024/01/10 10:22:13;;;;;;;14.97;9.53;;;;;;;;;;6181047;23;19997;-89
2024/01/10 10:24:39;;;;;;;14.20;9.30;;;;;;;;;;6182637;23;19997;-88
2024/01/10 10:27:09;;;;;;;16.70;9.87;;;;;;;;;;6180643;23;20034;-88
2024/01/10 10:29:35;;;;;;;13.13;8.70;;;;;;;;;;6182013;23;19997;-92
2024/01/10 10:32:01;;;;;;;14.13;8.93;;;;;;;;;;6180894;23;20005;-88
2024/01/10 10:34:30;;;;;;;13.27;8.53;;;;;;;;;;6184203;23;19993;-89
2024/01/10 10:36:56;;;;;;;11.33;7.87;;;;;;;;;;6190769;23;20020;-90
2024/01/10 10:39:22;;;;;;;13.17;8.23;;;;;;;;;;6181233;23;19997;-91
2024/01/10 10:41:52;;;;;;;13.80;8.37;;;;;;;;;;6162490;23;20011;-91
2024/01/10 10:44:20;;;;;;;12.53;7.83;;;;;;;;;;6182812;23;20327;-91
2024/01/10 10:46:48;;;;;;;11.60;8.50;;;;;;;;;;6185265;23;20005;-92
2024/01/10 10:49:13;;;;;;;15.20;9.20;;;;;;;;;;6195414;23;20328;-91
2024/01/10 10:51:39;;;;;;;14.80;8.20;;;;;;;;;;6195743;23;19989;-92
2024/01/10 10:54:06;;;;;;;12.77;8.40;;;;;;;;;;6186388;23;20028;-90
2024/01/10 10:56:33;;;;;;;11.87;8.57;;;;;;;;;;6181958;23;20085;-90
2024/01/10 10:59:00;;;;;;;14.70;8.90;;;;;;;;;;6184601;23;20001;-91
2024/01/10 11:01:29;;;;;;;13.40;8.37;;;;;;;;;;6182246;23;20420;-90
2024/01/10 11:03:54;;;;;;;12.83;8.50;;;;;;;;;;6183385;23;20324;-91
2024/01/10 11:06:45;;;;;;;14.13;8.57;;;;;;;;;;6182117;23;20001;-92
